createdAt,value
2018-08-16T00:01:29.568Z,39.49
2018-08-16T00:06:33.242Z,39.19
2018-08-16T00:11:37.581Z,39.30
2018-08-16T00:16:41.133Z,38.95
2018-08-16T00:21:44.677Z,39.63
2018-08-16T00:26:48.491Z,39.58
2018-08-16T00:31:52.173Z,39.31
2018-08-16T00:36:56.113Z,39.64
2018-08-16T00:41:59.944Z,39.45
2018-08-16T00:47:04.022Z,39.78
2018-08-16T00:52:08.353Z,39.53
2018-08-16T00:57:12.214Z,39.84
2018-08-16T01:02:15.828Z,39.64
2018-08-16T01:07:20.111Z,39.71
2018-08-16T01:12:23.793Z,39.93
2018-08-16T01:17:27.256Z,40.06
2018-08-16T01:22:31.021Z,39.61
2018-08-16T01:27:34.695Z,39.65
2018-08-16T01:32:38.213Z,40.00
2018-08-16T01:37:41.773Z,39.83
2018-08-16T01:42:45.376Z,39.91
2018-08-16T01:47:48.885Z,39.82
2018-08-16T01:52:52.636Z,39.80
2018-08-16T01:57:56.157Z,39.61
2018-08-16T02:02:59.662Z,39.69
2018-08-16T02:08:03.264Z,39.67
2018-08-16T02:13:06.907Z,39.59
2018-08-16T02:18:10.472Z,39.25
2018-08-16T02:23:14.117Z,39.32
2018-08-16T02:28:17.576Z,39.26
2018-08-16T02:33:21.111Z,39.25
2018-08-16T02:38:24.618Z,39.28
2018-08-16T02:43:28.080Z,39.54
2018-08-16T02:48:31.923Z,39.50
2018-08-16T02:53:35.380Z,39.94
2018-08-16T02:58:38.818Z,39.80
2018-08-16T03:03:42.338Z,39.72
2018-08-16T03:08:45.850Z,39.23
2018-08-16T03:13:49.649Z,39.90
2018-08-16T03:18:53.296Z,39.28
2018-08-16T03:23:57.205Z,39.50
2018-08-16T03:29:00.629Z,39.59
2018-08-16T03:34:04.251Z,39.75
2018-08-16T03:39:08.942Z,39.72
2018-08-16T03:44:12.506Z,40.39
2018-08-16T03:49:16.033Z,40.25
2018-08-16T03:54:19.472Z,40.44
2018-08-16T03:59:22.970Z,40.28
2018-08-16T04:04:26.471Z,40.67
2018-08-16T04:09:30.137Z,40.66
2018-08-16T04:14:33.704Z,41.99
2018-08-16T04:19:37.630Z,42.33
2018-08-16T04:24:41.085Z,42.66
2018-08-16T04:29:44.609Z,42.90
2018-08-16T04:34:48.100Z,43.47
2018-08-16T04:39:51.661Z,43.47
2018-08-16T04:44:55.169Z,43.44
2018-08-16T04:49:58.714Z,43.55
2018-08-16T04:55:02.215Z,43.77
2018-08-16T05:00:07.669Z,43.53
2018-08-16T05:05:11.148Z,43.99
2018-08-16T05:10:14.708Z,44.61
2018-08-16T05:15:18.129Z,44.57
2018-08-16T05:20:21.829Z,44.26
2018-08-16T05:25:25.909Z,44.69
2018-08-16T05:30:29.368Z,44.82
2018-08-16T05:35:33.088Z,44.81
2018-08-16T05:40:36.832Z,44.42
2018-08-16T05:45:40.273Z,44.41
2018-08-16T05:50:44.127Z,44.47
2018-08-16T05:55:47.574Z,44.25
2018-08-16T06:00:51.042Z,44.08
2018-08-16T06:05:54.571Z,44.04
2018-08-16T06:10:58.117Z,43.96
2018-08-16T06:16:01.946Z,44.37
2018-08-16T06:21:05.593Z,44.07
2018-08-16T06:26:09.141Z,44.17
2018-08-16T06:31:12.869Z,43.61
2018-08-16T06:36:16.925Z,43.50
2018-08-16T06:41:20.453Z,43.25
2018-08-16T06:46:24.198Z,43.19
2018-08-16T06:51:27.688Z,42.51
2018-08-16T06:56:31.202Z,42.51
2018-08-16T07:01:34.826Z,43.41
2018-08-16T07:06:38.544Z,42.76
2018-08-16T07:11:42.381Z,42.85
2018-08-16T07:16:45.859Z,42.39
2018-08-16T07:21:49.393Z,42.83
2018-08-16T07:26:52.949Z,43.30
2018-08-16T07:31:56.419Z,42.96
2018-08-16T07:36:59.972Z,42.47
2018-08-16T07:42:03.537Z,42.33
2018-08-16T07:47:07.115Z,42.63
2018-08-16T07:52:10.766Z,42.54
2018-08-16T07:57:14.121Z,42.81
2018-08-16T08:02:17.909Z,42.52
2018-08-16T08:07:21.437Z,43.03
2018-08-16T08:12:24.960Z,42.37
2018-08-16T08:17:28.648Z,42.68
2018-08-16T08:22:32.164Z,43.01
2018-08-16T08:27:36.034Z,42.93
2018-08-16T08:32:40.057Z,43.34
2018-08-16T08:37:54.658Z,43.22
2018-08-16T08:42:58.328Z,42.92
2018-08-16T08:48:01.797Z,43.03
2018-08-16T08:53:16.641Z,42.67
2018-08-16T08:58:31.399Z,42.96
2018-08-16T09:03:34.893Z,42.43
2018-08-16T09:08:38.365Z,42.64
2018-08-16T09:13:54.445Z,43.10
2018-08-16T09:18:58.431Z,42.86
2018-08-16T09:24:02.138Z,42.58
2018-08-16T09:31:33.563Z,42.40
2018-08-16T09:36:37.044Z,42.51
2018-08-16T09:41:40.544Z,42.54
2018-08-16T09:47:02.748Z,42.61
2018-08-16T09:52:07.377Z,44.20
2018-08-16T09:57:12.055Z,44.79
2018-08-16T10:02:17.127Z,44.75
2018-08-16T10:07:20.709Z,45.16
2018-08-16T10:12:24.224Z,44.94
2018-08-16T10:17:27.712Z,45.46
2018-08-16T10:22:31.277Z,45.63
2018-08-16T10:27:34.786Z,45.22
2018-08-16T10:32:38.996Z,45.21
2018-08-16T10:37:42.480Z,44.85
2018-08-16T10:42:46.112Z,44.40
2018-08-16T10:47:49.715Z,44.41
2018-08-16T10:52:53.333Z,44.96
2018-08-16T10:57:56.893Z,45.01
2018-08-16T11:03:00.409Z,45.14
2018-08-16T11:08:03.905Z,45.05
2018-08-16T11:13:07.481Z,45.25
2018-08-16T11:18:11.458Z,45.02
2018-08-16T11:23:15.267Z,45.43
2018-08-16T11:28:18.984Z,45.35
2018-08-16T11:33:22.604Z,44.91
2018-08-16T11:38:26.127Z,44.74
2018-08-16T11:43:29.625Z,44.78
2018-08-16T11:48:33.040Z,44.81
2018-08-16T11:53:36.502Z,44.58
2018-08-16T11:58:40.249Z,44.96
2018-08-16T12:03:44.641Z,45.13
2018-08-16T12:08:48.433Z,45.02
2018-08-16T12:13:52.037Z,45.04
2018-08-16T12:18:55.680Z,44.67
2018-08-16T12:23:59.357Z,44.39
2018-08-16T12:29:03.022Z,44.56
2018-08-16T12:34:06.946Z,44.54
2018-08-16T12:39:10.559Z,44.92
2018-08-16T12:44:14.178Z,44.56
2018-08-16T12:49:17.741Z,45.11
2018-08-16T12:54:21.578Z,44.50
2018-08-16T12:59:25.225Z,44.92
2018-08-16T13:04:29.181Z,44.80
2018-08-16T13:09:32.797Z,44.58
2018-08-16T13:14:36.305Z,44.08
2018-08-16T13:19:39.836Z,43.75
2018-08-16T13:24:43.425Z,44.18
2018-08-16T13:29:46.877Z,44.15
2018-08-16T13:34:50.659Z,43.91
2018-08-16T13:39:54.092Z,43.74
2018-08-16T13:44:57.638Z,44.22
2018-08-16T13:50:01.304Z,43.87
2018-08-16T13:55:05.099Z,44.29
2018-08-16T14:00:09.153Z,44.75
2018-08-16T14:05:12.685Z,44.47
2018-08-16T14:10:16.285Z,44.64
2018-08-16T14:15:19.766Z,44.95
2018-08-16T14:20:23.249Z,44.55
2018-08-16T14:25:26.703Z,45.00
2018-08-16T14:30:30.540Z,44.85
2018-08-16T14:35:34.680Z,44.34
2018-08-16T14:40:38.192Z,44.26
2018-08-16T14:45:41.693Z,44.63
2018-08-16T14:50:45.237Z,44.54
2018-08-16T14:55:48.720Z,45.61
2018-08-16T15:00:52.396Z,45.59
2018-08-16T15:05:56.072Z,46.45
2018-08-16T15:10:59.619Z,46.53
2018-08-16T15:16:03.089Z,46.91
2018-08-16T15:21:06.833Z,46.98
2018-08-16T15:26:10.394Z,46.80
2018-08-16T15:31:13.849Z,46.77
2018-08-16T15:36:17.397Z,46.04
2018-08-16T15:41:21.160Z,45.92
2018-08-16T15:46:24.892Z,45.18
2018-08-16T15:51:28.397Z,45.04
2018-08-16T15:56:31.864Z,45.20
2018-08-16T16:01:35.345Z,44.66
2018-08-16T16:06:38.862Z,43.97
2018-08-16T16:11:42.434Z,43.48
2018-08-16T16:16:46.037Z,44.00
2018-08-16T16:21:49.669Z,43.80
2018-08-16T16:26:53.242Z,43.89
2018-08-16T16:31:56.828Z,44.76
2018-08-16T16:37:00.405Z,44.90
2018-08-16T16:42:03.991Z,45.08
2018-08-16T16:47:08.257Z,45.65
2018-08-16T16:52:11.858Z,45.85
2018-08-16T16:57:15.553Z,46.11
2018-08-16T17:02:19.387Z,45.26
2018-08-16T17:07:23.338Z,44.78
2018-08-16T17:12:26.897Z,44.70
2018-08-16T17:17:30.530Z,45.01
2018-08-16T17:22:34.813Z,44.39
2018-08-16T17:27:38.251Z,44.43
2018-08-16T17:32:41.941Z,44.51
2018-08-16T17:37:45.480Z,44.45
2018-08-16T17:42:49.005Z,44.04
2018-08-16T17:47:52.505Z,44.36
2018-08-16T17:52:55.968Z,45.00
2018-08-16T17:57:59.477Z,44.81
2018-08-16T18:03:03.103Z,44.66
2018-08-16T18:08:06.616Z,44.31
2018-08-16T18:13:10.137Z,44.47
2018-08-16T18:18:13.662Z,44.57
2018-08-16T18:23:17.201Z,44.24
2018-08-16T18:28:20.733Z,43.96
2018-08-16T18:38:42.518Z,44.06
2018-08-16T18:43:46.316Z,43.90
2018-08-16T18:48:49.865Z,43.95
2018-08-16T18:53:53.400Z,44.64
2018-08-16T18:58:56.989Z,43.87
2018-08-16T19:04:00.440Z,44.28
2018-08-16T19:09:04.766Z,44.57
2018-08-16T19:14:08.317Z,43.94
2018-08-16T19:19:11.806Z,44.16
2018-08-16T19:24:16.694Z,44.30
2018-08-16T19:29:20.312Z,43.71
2018-08-16T19:34:23.825Z,43.82
2018-08-16T19:39:27.601Z,43.79
2018-08-16T19:44:31.319Z,43.94
2018-08-16T19:49:34.784Z,43.65
2018-08-16T19:54:38.276Z,43.59
2018-08-16T19:59:42.137Z,44.36
2018-08-16T20:04:46.214Z,43.77
2018-08-16T20:09:51.023Z,44.04
2018-08-16T20:14:54.521Z,43.55
2018-08-16T20:19:58.048Z,44.02
2018-08-16T20:25:01.712Z,43.68
2018-08-16T20:30:06.091Z,43.47
2018-08-16T20:35:10.066Z,43.35
2018-08-16T20:40:13.585Z,43.74
2018-08-16T20:45:17.124Z,43.39
2018-08-16T20:50:20.999Z,43.10
2018-08-16T20:55:24.643Z,43.06
2018-08-16T21:00:28.343Z,42.93
2018-08-16T21:05:31.774Z,42.82
2018-08-16T21:10:35.865Z,42.73
2018-08-16T21:15:39.629Z,43.13
2018-08-16T21:20:44.108Z,42.87
2018-08-16T21:25:47.783Z,42.99
2018-08-16T21:30:51.454Z,42.97
2018-08-16T21:35:55.001Z,42.60
2018-08-16T21:40:59.243Z,42.88
2018-08-16T21:46:02.805Z,42.72
2018-08-16T21:51:06.430Z,42.26
2018-08-16T21:56:10.133Z,42.28
2018-08-16T22:01:14.267Z,42.25
2018-08-16T22:06:29.073Z,42.39
2018-08-16T22:11:32.673Z,42.32
2018-08-16T22:16:36.468Z,41.95
2018-08-16T22:21:40.247Z,41.95
2018-08-16T22:26:43.809Z,42.53
2018-08-16T22:31:47.842Z,42.32
2018-08-16T22:36:52.061Z,42.09
2018-08-16T22:41:55.874Z,42.35
2018-08-16T22:47:00.004Z,42.09
2018-08-16T22:52:03.745Z,42.08
2018-08-16T22:57:07.747Z,42.21
2018-08-16T23:02:11.230Z,41.93
2018-08-16T23:07:14.730Z,41.72
2018-08-16T23:12:18.377Z,41.96
2018-08-16T23:17:21.915Z,41.98
2018-08-16T23:22:25.552Z,42.01
2018-08-16T23:27:29.140Z,41.88
2018-08-16T23:32:32.613Z,41.80
2018-08-16T23:37:36.379Z,41.87
2018-08-16T23:42:40.321Z,41.89
2018-08-16T23:47:53.684Z,41.88
2018-08-16T23:52:57.249Z,41.36
2018-08-16T23:58:00.890Z,41.48
